sensor_id;sensor_type;location;lat;lon;timestamp;pressure;altitude;pressure_sealevel;temperature;humidity
20368;BME280;10343;52.402;9.796;2023-02-04T00:00:17;102146.34;;;8.30;94.16
20368;BME280;10343;52.402;9.796;2023-02-04T00:02:46;102146.44;;;8.40;94.75
20368;BME280;10343;52.402;9.796;2023-02-04T00:05:16;102154.97;;;8.12;93.41
20368;BME280;10343;52.402;9.796;2023-02-04T00:07:45;102159.25;;;8.01;91.64
20368;BME280;10343;52.402;9.796;2023-02-04T00:10:13;102154.94;;;8.09;92.18
20368;BME280;10343;52.402;9.796;2023-02-04T00:12:41;102154.13;;;8.18;88.87
20368;BME280;10343;52.402;9.796;2023-02-04T00:15:09;102165.59;;;8.17;86.10
20368;BME280;10343;52.402;9.796;2023-02-04T00:17:37;102177.66;;;8.82;84.36
20368;BME280;10343;52.402;9.796;2023-02-04T00:20:06;102182.31;;;8.14;84.87
20368;BME280;10343;52.402;9.796;2023-02-04T00:22:34;102193.28;;;8.50;82.70
20368;BME280;10343;52.402;9.796;2023-02-04T00:25:04;102178.84;;;8.23;84.91
20368;BME280;10343;52.402;9.796;2023-02-04T00:27:32;102196.03;;;7.84;84.76
20368;BME280;10343;52.402;9.796;2023-02-04T00:30:00;102192.09;;;8.25;83.24
20368;BME280;10343;52.402;9.796;2023-02-04T00:32:28;102187.78;;;8.34;82.45
20368;BME280;10343;52.402;9.796;2023-02-04T00:34:56;102190.94;;;7.99;83.63
20368;BME280;10343;52.402;9.796;2023-02-04T00:37:24;102196.59;;;8.33;83.42
20368;BME280;10343;52.402;9.796;2023-02-04T00:39:52;102207.13;;;8.30;83.23
20368;BME280;10343;52.402;9.796;2023-02-04T00:42:22;102205.22;;;8.17;85.53
20368;BME280;10343;52.402;9.796;2023-02-04T00:44:49;102212.06;;;7.99;84.64
20368;BME280;10343;52.402;9.796;2023-02-04T00:47:17;102217.50;;;8.12;84.62
20368;BME280;10343;52.402;9.796;2023-02-04T00:49:45;102240.69;;;8.38;83.60
20368;BME280;10343;52.402;9.796;2023-02-04T00:52:13;102243.66;;;7.93;88.03
20368;BME280;10343;52.402;9.796;2023-02-04T00:54:41;102245.59;;;8.07;85.64
20368;BME280;10343;52.402;9.796;2023-02-04T00:57:09;102258.00;;;8.14;86.70
20368;BME280;10343;52.402;9.796;2023-02-04T00:59:41;102264.53;;;7.72;90.08
20368;BME280;10343;52.402;9.796;2023-02-04T01:02:10;102263.03;;;7.89;90.87
20368;BME280;10343;52.402;9.796;2023-02-04T01:04:38;102275.69;;;7.52;90.29
20368;BME280;10343;52.402;9.796;2023-02-04T01:07:06;102285.34;;;7.52;90.01
20368;BME280;10343;52.402;9.796;2023-02-04T01:09:34;102301.50;;;7.73;86.65
20368;BME280;10343;52.402;9.796;2023-02-04T01:12:03;102298.09;;;7.82;86.46
20368;BME280;10343;52.402;9.796;2023-02-04T01:14:31;102305.16;;;7.83;83.34
20368;BME280;10343;52.402;9.796;2023-02-04T01:17:01;102320.53;;;8.13;80.70
20368;BME280;10343;52.402;9.796;2023-02-04T01:19:29;102336.53;;;8.23;80.16
20368;BME280;10343;52.402;9.796;2023-02-04T01:21:57;102335.88;;;8.41;78.85
20368;BME280;10343;52.402;9.796;2023-02-04T01:24:25;102354.94;;;8.18;78.47
20368;BME280;10343;52.402;9.796;2023-02-04T01:27:11;102353.75;;;7.94;80.76
20368;BME280;10343;52.402;9.796;2023-02-04T01:29:41;102345.97;;;8.05;80.02
20368;BME280;10343;52.402;9.796;2023-02-04T01:32:10;102355.19;;;7.72;80.38
20368;BME280;10343;52.402;9.796;2023-02-04T01:34:38;102353.19;;;8.17;79.77
20368;BME280;10343;52.402;9.796;2023-02-04T01:37:07;102350.53;;;8.15;81.24
20368;BME280;10343;52.402;9.796;2023-02-04T01:39:35;102351.94;;;7.93;83.03
20368;BME280;10343;52.402;9.796;2023-02-04T01:42:03;102351.72;;;7.76;83.55
20368;BME280;10343;52.402;9.796;2023-02-04T01:44:31;102374.78;;;7.87;83.43
20368;BME280;10343;52.402;9.796;2023-02-04T01:46:59;102373.56;;;7.64;83.47
20368;BME280;10343;52.402;9.796;2023-02-04T01:49:29;102383.38;;;7.75;85.07
20368;BME280;10343;52.402;9.796;2023-02-04T01:51:57;102384.56;;;7.95;83.28
20368;BME280;10343;52.402;9.796;2023-02-04T01:54:26;102391.00;;;8.13;83.43
20368;BME280;10343;52.402;9.796;2023-02-04T01:56:55;102394.72;;;7.68;84.07
20368;BME280;10343;52.402;9.796;2023-02-04T01:59:24;102409.44;;;8.10;81.86
20368;BME280;10343;52.402;9.796;2023-02-04T02:01:53;102414.97;;;7.69;84.91
20368;BME280;10343;52.402;9.796;2023-02-04T02:04:27;102421.69;;;7.50;86.13
20368;BME280;10343;52.402;9.796;2023-02-04T02:07:00;102434.13;;;8.12;83.10
20368;BME280;10343;52.402;9.796;2023-02-04T02:09:29;102428.72;;;7.51;85.62
20368;BME280;10343;52.402;9.796;2023-02-04T02:12:00;102440.78;;;7.35;86.89
20368;BME280;10343;52.402;9.796;2023-02-04T02:14:30;102436.56;;;7.46;86.37
20368;BME280;10343;52.402;9.796;2023-02-04T02:16:58;102435.97;;;7.61;85.79
20368;BME280;10343;52.402;9.796;2023-02-04T02:19:32;102440.41;;;7.63;82.37
20368;BME280;10343;52.402;9.796;2023-02-04T02:22:06;102441.69;;;7.37;82.09
20368;BME280;10343;52.402;9.796;2023-02-04T02:24:39;102452.72;;;7.14;82.91
20368;BME280;10343;52.402;9.796;2023-02-04T02:27:08;102451.53;;;7.45;82.29
20368;BME280;10343;52.402;9.796;2023-02-04T02:29:39;102459.03;;;7.22;81.22
20368;BME280;10343;52.402;9.796;2023-02-04T02:32:09;102474.53;;;7.53;80.58
20368;BME280;10343;52.402;9.796;2023-02-04T02:34:39;102483.38;;;7.09;80.38
20368;BME280;10343;52.402;9.796;2023-02-04T02:37:08;102480.44;;;6.93;82.30
20368;BME280;10343;52.402;9.796;2023-02-04T02:39:39;102479.75;;;7.48;80.93
20368;BME280;10343;52.402;9.796;2023-02-04T02:42:12;102487.88;;;7.14;81.63
20368;BME280;10343;52.402;9.796;2023-02-04T02:44:42;102490.22;;;6.99;82.77
20368;BME280;10343;52.402;9.796;2023-02-04T02:47:12;102499.78;;;6.95;82.28
20368;BME280;10343;52.402;9.796;2023-02-04T02:49:42;102502.94;;;7.20;81.96
20368;BME280;10343;52.402;9.796;2023-02-04T02:52:11;102518.19;;;6.92;83.16
20368;BME280;10343;52.402;9.796;2023-02-04T02:54:41;102517.69;;;7.10;82.97
20368;BME280;10343;52.402;9.796;2023-02-04T02:57:14;102516.81;;;7.10;82.08
20368;BME280;10343;52.402;9.796;2023-02-04T02:59:42;102525.19;;;6.90;82.62
20368;BME280;10343;52.402;9.796;2023-02-04T03:02:13;102535.31;;;7.11;82.98
20368;BME280;10343;52.402;9.796;2023-02-04T03:04:44;102531.59;;;7.02;84.23
20368;BME280;10343;52.402;9.796;2023-02-04T03:07:16;102534.34;;;7.08;83.41
20368;BME280;10343;52.402;9.796;2023-02-04T03:09:46;102543.56;;;6.87;85.42
20368;BME280;10343;52.402;9.796;2023-02-04T03:12:15;102543.13;;;7.07;84.35
20368;BME280;10343;52.402;9.796;2023-02-04T03:14:43;102561.50;;;7.04;83.67
20368;BME280;10343;52.402;9.796;2023-02-04T03:17:11;102568.34;;;6.95;84.87
20368;BME280;10343;52.402;9.796;2023-02-04T03:19:39;102577.41;;;7.48;81.87
20368;BME280;10343;52.402;9.796;2023-02-04T03:22:08;102576.75;;;7.17;81.93
20368;BME280;10343;52.402;9.796;2023-02-04T03:24:36;102582.44;;;6.94;82.64
20368;BME280;10343;52.402;9.796;2023-02-04T03:27:06;102591.66;;;7.15;81.70
20368;BME280;10343;52.402;9.796;2023-02-04T03:29:41;102599.38;;;6.68;83.18
20368;BME280;10343;52.402;9.796;2023-02-04T03:32:10;102607.78;;;6.89;82.21
20368;BME280;10343;52.402;9.796;2023-02-04T03:34:38;102608.06;;;6.63;84.83
20368;BME280;10343;52.402;9.796;2023-02-04T03:37:06;102623.41;;;6.80;83.51
20368;BME280;10343;52.402;9.796;2023-02-04T03:39:34;102623.69;;;6.92;82.68
20368;BME280;10343;52.402;9.796;2023-02-04T03:42:02;102640.47;;;6.96;82.38
20368;BME280;10343;52.402;9.796;2023-02-04T03:44:32;102638.59;;;6.90;82.76
20368;BME280;10343;52.402;9.796;2023-02-04T03:47:00;102640.34;;;6.91;82.48
20368;BME280;10343;52.402;9.796;2023-02-04T03:49:29;102637.09;;;7.02;80.59
20368;BME280;10343;52.402;9.796;2023-02-04T03:51:57;102646.66;;;7.38;78.47
20368;BME280;10343;52.402;9.796;2023-02-04T03:54:27;102647.88;;;7.52;77.04
20368;BME280;10343;52.402;9.796;2023-02-04T03:56:55;102646.97;;;7.12;78.23
20368;BME280;10343;52.402;9.796;2023-02-04T03:59:23;102658.75;;;6.88;79.16
20368;BME280;10343;52.402;9.796;2023-02-04T04:01:52;102660.66;;;6.95;78.05
20368;BME280;10343;52.402;9.796;2023-02-04T04:04:21;102664.94;;;7.28;77.24
20368;BME280;10343;52.402;9.796;2023-02-04T04:06:49;102664.34;;;7.42;76.71
20368;BME280;10343;52.402;9.796;2023-02-04T04:09:17;102675.75;;;7.41;76.61
20368;BME280;10343;52.402;9.796;2023-02-04T04:11:45;102677.41;;;6.96;77.64
20368;BME280;10343;52.402;9.796;2023-02-04T04:14:13;102679.06;;;6.92;77.07
20368;BME280;10343;52.402;9.796;2023-02-04T04:16:41;102683.44;;;6.90;79.07
20368;BME280;10343;52.402;9.796;2023-02-04T04:19:10;102679.00;;;6.89;78.13
20368;BME280;10343;52.402;9.796;2023-02-04T04:21:38;102682.09;;;6.73;79.23
20368;BME280;10343;52.402;9.796;2023-02-04T04:24:06;102682.94;;;7.07;78.18
20368;BME280;10343;52.402;9.796;2023-02-04T04:26:34;102684.63;;;7.05;77.83
20368;BME280;10343;52.402;9.796;2023-02-04T04:29:02;102702.50;;;6.80;78.31
20368;BME280;10343;52.402;9.796;2023-02-04T04:31:31;102704.28;;;6.81;79.89
20368;BME280;10343;52.402;9.796;2023-02-04T04:33:59;102714.19;;;6.91;78.43
20368;BME280;10343;52.402;9.796;2023-02-04T04:36:29;102709.94;;;6.96;77.91
20368;BME280;10343;52.402;9.796;2023-02-04T04:38:57;102717.22;;;7.07;77.97
20368;BME280;10343;52.402;9.796;2023-02-04T04:41:25;102723.66;;;6.83;77.42
20368;BME280;10343;52.402;9.796;2023-02-04T04:43:53;102718.91;;;7.05;78.11
20368;BME280;10343;52.402;9.796;2023-02-04T04:46:21;102722.19;;;6.94;77.26
20368;BME280;10343;52.402;9.796;2023-02-04T04:48:50;102739.06;;;6.66;78.89
20368;BME280;10343;52.402;9.796;2023-02-04T04:51:18;102734.56;;;6.62;78.84
20368;BME280;10343;52.402;9.796;2023-02-04T04:53:47;102749.56;;;6.65;79.27
20368;BME280;10343;52.402;9.796;2023-02-04T04:56:15;102756.53;;;6.62;78.88
20368;BME280;10343;52.402;9.796;2023-02-04T04:58:44;102765.41;;;6.33;79.59
20368;BME280;10343;52.402;9.796;2023-02-04T05:01:12;102756.97;;;6.14;80.46
20368;BME280;10343;52.402;9.796;2023-02-04T05:03:40;102759.03;;;6.24;81.76
20368;BME280;10343;52.402;9.796;2023-02-04T05:06:08;102763.72;;;6.36;81.38
20368;BME280;10343;52.402;9.796;2023-02-04T05:08:38;102765.78;;;6.46;81.37
20368;BME280;10343;52.402;9.796;2023-02-04T05:11:07;102757.50;;;6.33;80.42
20368;BME280;10343;52.402;9.796;2023-02-04T05:13:35;102771.56;;;6.33;79.61
20368;BME280;10343;52.402;9.796;2023-02-04T05:16:04;102777.06;;;6.41;80.51
20368;BME280;10343;52.402;9.796;2023-02-04T05:18:32;102769.38;;;6.18;81.60
20368;BME280;10343;52.402;9.796;2023-02-04T05:21:00;102773.13;;;6.26;81.34
20368;BME280;10343;52.402;9.796;2023-02-04T05:23:28;102780.91;;;6.22;80.20
20368;BME280;10343;52.402;9.796;2023-02-04T05:25:56;102786.69;;;6.10;81.27
20368;BME280;10343;52.402;9.796;2023-02-04T05:28:25;102788.84;;;6.23;80.95
20368;BME280;10343;52.402;9.796;2023-02-04T05:30:54;102787.84;;;6.20;80.90
20368;BME280;10343;52.402;9.796;2023-02-04T05:33:22;102788.84;;;5.94;83.27
20368;BME280;10343;52.402;9.796;2023-02-04T05:35:50;102803.59;;;6.17;82.88
20368;BME280;10343;52.402;9.796;2023-02-04T05:38:18;102804.50;;;6.17;81.94
20368;BME280;10343;52.402;9.796;2023-02-04T05:40:46;102818.06;;;6.01;83.13
20368;BME280;10343;52.402;9.796;2023-02-04T05:43:14;102817.19;;;6.02;83.18
20368;BME280;10343;52.402;9.796;2023-02-04T05:45:43;102818.53;;;5.89;82.83
20368;BME280;10343;52.402;9.796;2023-02-04T05:48:11;102811.44;;;5.86;83.76
20368;BME280;10343;52.402;9.796;2023-02-04T05:50:39;102815.44;;;6.01;83.13
20368;BME280;10343;52.402;9.796;2023-02-04T05:53:08;102827.91;;;6.08;82.76
20368;BME280;10343;52.402;9.796;2023-02-04T05:55:36;102836.19;;;6.20;82.93
20368;BME280;10343;52.402;9.796;2023-02-04T05:58:07;102845.13;;;6.25;82.15
20368;BME280;10343;52.402;9.796;2023-02-04T06:00:35;102849.91;;;6.10;82.56
20368;BME280;10343;52.402;9.796;2023-02-04T06:03:05;102848.59;;;5.68;84.92
20368;BME280;10343;52.402;9.796;2023-02-04T06:05:33;102844.31;;;5.70;85.18
20368;BME280;10343;52.402;9.796;2023-02-04T06:08:01;102842.22;;;5.60;86.86
20368;BME280;10343;52.402;9.796;2023-02-04T06:10:29;102844.13;;;5.66;86.25
20368;BME280;10343;52.402;9.796;2023-02-04T06:12:58;102839.25;;;5.78;85.35
20368;BME280;10343;52.402;9.796;2023-02-04T06:15:26;102846.69;;;5.63;86.86
20368;BME280;10343;52.402;9.796;2023-02-04T06:17:54;102852.28;;;5.73;85.74
20368;BME280;10343;52.402;9.796;2023-02-04T06:20:23;102864.38;;;5.95;85.90
20368;BME280;10343;52.402;9.796;2023-02-04T06:22:51;102864.44;;;5.97;84.56
20368;BME280;10343;52.402;9.796;2023-02-04T06:25:20;102869.41;;;6.15;84.57
20368;BME280;10343;52.402;9.796;2023-02-04T06:27:48;102873.88;;;5.90;84.35
20368;BME280;10343;52.402;9.796;2023-02-04T06:30:17;102879.47;;;6.00;83.79
20368;BME280;10343;52.402;9.796;2023-02-04T06:32:45;102892.25;;;5.61;85.43
20368;BME280;10343;52.402;9.796;2023-02-04T06:35:13;102898.94;;;5.77;85.22
20368;BME280;10343;52.402;9.796;2023-02-04T06:37:43;102902.09;;;5.67;85.53
20368;BME280;10343;52.402;9.796;2023-02-04T06:40:11;102892.56;;;5.71;85.74
20368;BME280;10343;52.402;9.796;2023-02-04T06:42:39;102899.91;;;5.81;85.56
20368;BME280;10343;52.402;9.796;2023-02-04T06:45:08;102896.03;;;5.70;85.29
20368;BME280;10343;52.402;9.796;2023-02-04T06:47:36;102899.19;;;5.58;85.79
20368;BME280;10343;52.402;9.796;2023-02-04T06:50:04;102894.75;;;5.57;86.46
20368;BME280;10343;52.402;9.796;2023-02-04T06:52:32;102897.84;;;5.71;85.49
20368;BME280;10343;52.402;9.796;2023-02-04T06:55:01;102900.81;;;5.54;85.78
20368;BME280;10343;52.402;9.796;2023-02-04T06:57:30;102906.75;;;5.49;85.59
20368;BME280;10343;52.402;9.796;2023-02-04T06:59:57;102910.22;;;5.48;86.51
20368;BME280;10343;52.402;9.796;2023-02-04T07:02:25;102926.69;;;5.42;86.92
20368;BME280;10343;52.402;9.796;2023-02-04T07:04:53;102925.09;;;5.46;86.91
20368;BME280;10343;52.402;9.796;2023-02-04T07:07:21;102928.78;;;5.52;87.08
20368;BME280;10343;52.402;9.796;2023-02-04T07:09:49;102935.00;;;5.80;86.00
20368;BME280;10343;52.402;9.796;2023-02-04T07:12:19;102944.81;;;5.86;84.25
20368;BME280;10343;52.402;9.796;2023-02-04T07:14:47;102951.81;;;6.11;83.86
20368;BME280;10343;52.402;9.796;2023-02-04T07:17:15;102952.56;;;6.36;80.99
20368;BME280;10343;52.402;9.796;2023-02-04T07:19:42;102960.13;;;6.25;79.57
20368;BME280;10343;52.402;9.796;2023-02-04T07:22:10;102961.97;;;6.27;78.97
20368;BME280;10343;52.402;9.796;2023-02-04T07:24:38;102959.28;;;6.26;77.84
20368;BME280;10343;52.402;9.796;2023-02-04T07:27:07;102969.97;;;6.31;79.47
20368;BME280;10343;52.402;9.796;2023-02-04T07:29:36;102970.19;;;6.37;79.20
20368;BME280;10343;52.402;9.796;2023-02-04T07:32:04;102972.34;;;6.50;77.32
20368;BME280;10343;52.402;9.796;2023-02-04T07:34:32;102988.41;;;6.59;77.69
20368;BME280;10343;52.402;9.796;2023-02-04T07:37:00;102987.34;;;6.53;76.62
20368;BME280;10343;52.402;9.796;2023-02-04T07:39:28;102993.22;;;6.73;75.86
20368;BME280;10343;52.402;9.796;2023-02-04T07:41:56;102996.13;;;6.82;75.06
20368;BME280;10343;52.402;9.796;2023-02-04T07:44:32;102988.19;;;6.80;75.10
20368;BME280;10343;52.402;9.796;2023-02-04T07:47:01;102999.25;;;6.69;75.90
20368;BME280;10343;52.402;9.796;2023-02-04T07:49:29;103000.84;;;6.63;75.93
20368;BME280;10343;52.402;9.796;2023-02-04T07:51:57;103007.16;;;6.40;77.29
20368;BME280;10343;52.402;9.796;2023-02-04T07:54:25;103013.84;;;6.57;76.94
20368;BME280;10343;52.402;9.796;2023-02-04T07:56:53;103015.53;;;6.84;76.24
20368;BME280;10343;52.402;9.796;2023-02-04T07:59:21;103022.00;;;6.95;75.43
20368;BME280;10343;52.402;9.796;2023-02-04T08:01:49;103028.22;;;6.97;74.13
20368;BME280;10343;52.402;9.796;2023-02-04T08:04:18;103026.38;;;6.65;74.80
20368;BME280;10343;52.402;9.796;2023-02-04T08:06:46;103023.91;;;6.71;76.19
20368;BME280;10343;52.402;9.796;2023-02-04T08:09:14;103024.34;;;6.85;75.81
20368;BME280;10343;52.402;9.796;2023-02-04T08:11:43;103027.88;;;6.85;75.15
20368;BME280;10343;52.402;9.796;2023-02-04T08:14:11;103035.16;;;6.65;75.63
20368;BME280;10343;52.402;9.796;2023-02-04T08:16:39;103024.66;;;6.67;75.85
20368;BME280;10343;52.402;9.796;2023-02-04T08:19:07;103033.91;;;6.52;76.97
20368;BME280;10343;52.402;9.796;2023-02-04T08:21:37;103028.44;;;6.46;77.68
20368;BME280;10343;52.402;9.796;2023-02-04T08:24:05;103022.84;;;6.35;78.99
20368;BME280;10343;52.402;9.796;2023-02-04T08:26:33;103021.00;;;6.33;79.60
20368;BME280;10343;52.402;9.796;2023-02-04T08:29:05;103017.75;;;6.70;77.99
20368;BME280;10343;52.402;9.796;2023-02-04T08:31:34;103026.72;;;7.06;75.49
20368;BME280;10343;52.402;9.796;2023-02-04T08:34:04;103022.69;;;7.20;75.31
20368;BME280;10343;52.402;9.796;2023-02-04T08:36:32;103030.25;;;7.38;74.37
20368;BME280;10343;52.402;9.796;2023-02-04T08:39:02;103032.19;;;7.44;73.72
20368;BME280;10343;52.402;9.796;2023-02-04T08:41:30;103040.75;;;7.37;73.20
20368;BME280;10343;52.402;9.796;2023-02-04T08:43:59;103037.75;;;6.63;75.21
20368;BME280;10343;52.402;9.796;2023-02-04T08:46:27;103048.34;;;6.65;76.85
20368;BME280;10343;52.402;9.796;2023-02-04T08:48:55;103048.13;;;6.57;77.68
20368;BME280;10343;52.402;9.796;2023-02-04T08:51:26;103061.78;;;6.73;76.02
20368;BME280;10343;52.402;9.796;2023-02-04T08:53:54;103054.53;;;6.94;75.94
20368;BME280;10343;52.402;9.796;2023-02-04T08:56:24;103066.91;;;6.14;77.15
20368;BME280;10343;52.402;9.796;2023-02-04T08:58:52;103067.41;;;6.29;77.07
20368;BME280;10343;52.402;9.796;2023-02-04T09:01:20;103066.84;;;6.38;76.28
20368;BME280;10343;52.402;9.796;2023-02-04T09:03:48;103072.19;;;6.41;75.28
20368;BME280;10343;52.402;9.796;2023-02-04T09:06:16;103075.50;;;6.62;75.57
20368;BME280;10343;52.402;9.796;2023-02-04T09:08:44;103084.41;;;6.39;73.82
20368;BME280;10343;52.402;9.796;2023-02-04T09:11:13;103083.31;;;6.05;75.38
20368;BME280;10343;52.402;9.796;2023-02-04T09:13:42;103079.72;;;6.85;72.77
20368;BME280;10343;52.402;9.796;2023-02-04T09:16:10;103088.59;;;6.88;70.83
20368;BME280;10343;52.402;9.796;2023-02-04T09:18:40;103092.63;;;7.35;69.13
20368;BME280;10343;52.402;9.796;2023-02-04T09:21:08;103093.91;;;7.49;68.59
20368;BME280;10343;52.402;9.796;2023-02-04T09:23:36;103099.13;;;6.87;67.05
20368;BME280;10343;52.402;9.796;2023-02-04T09:26:05;103111.38;;;6.57;69.55
20368;BME280;10343;52.402;9.796;2023-02-04T09:28:33;103104.13;;;7.08;67.91
20368;BME280;10343;52.402;9.796;2023-02-04T09:31:03;103116.31;;;7.03;68.06
20368;BME280;10343;52.402;9.796;2023-02-04T09:33:32;103117.75;;;7.52;67.66
20368;BME280;10343;52.402;9.796;2023-02-04T09:36:00;103111.41;;;6.86;66.88
20368;BME280;10343;52.402;9.796;2023-02-04T09:38:28;103108.91;;;7.20;65.95
20368;BME280;10343;52.402;9.796;2023-02-04T09:41:00;103109.69;;;7.47;64.83
20368;BME280;10343;52.402;9.796;2023-02-04T09:43:30;103117.81;;;7.54;63.57
20368;BME280;10343;52.402;9.796;2023-02-04T09:46:02;103120.81;;;7.36;63.99
20368;BME280;10343;52.402;9.796;2023-02-04T09:48:31;103125.56;;;7.49;63.50
20368;BME280;10343;52.402;9.796;2023-02-04T09:51:04;103131.16;;;7.29;62.38
20368;BME280;10343;52.402;9.796;2023-02-04T09:53:33;103129.34;;;7.89;61.85
20368;BME280;10343;52.402;9.796;2023-02-04T09:56:03;103133.38;;;8.10;59.82
20368;BME280;10343;52.402;9.796;2023-02-04T09:58:33;103136.25;;;7.52;61.29
20368;BME280;10343;52.402;9.796;2023-02-04T10:01:11;103140.94;;;7.62;61.64
20368;BME280;10343;52.402;9.796;2023-02-04T10:03:41;103140.81;;;7.90;60.42
20368;BME280;10343;52.402;9.796;2023-02-04T10:06:14;103147.63;;;7.81;60.84
20368;BME280;10343;52.402;9.796;2023-02-04T10:08:44;103151.44;;;7.02;61.62
20368;BME280;10343;52.402;9.796;2023-02-04T10:11:13;103160.66;;;7.45;60.94
20368;BME280;10343;52.402;9.796;2023-02-04T10:13:45;103163.00;;;7.64;61.21
20368;BME280;10343;52.402;9.796;2023-02-04T10:16:20;103168.41;;;7.69;60.89
20368;BME280;10343;52.402;9.796;2023-02-04T10:18:49;103166.34;;;7.89;59.94
20368;BME280;10343;52.402;9.796;2023-02-04T10:21:20;103169.97;;;7.94;59.67
20368;BME280;10343;52.402;9.796;2023-02-04T10:23:50;103168.84;;;7.85;59.44
20368;BME280;10343;52.402;9.796;2023-02-04T10:26:22;103173.56;;;7.64;58.97
20368;BME280;10343;52.402;9.796;2023-02-04T10:28:57;103171.09;;;7.71;59.57
20368;BME280;10343;52.402;9.796;2023-02-04T10:31:33;103179.09;;;7.74;58.80
20368;BME280;10343;52.402;9.796;2023-02-04T10:34:05;103180.88;;;8.07;57.74
20368;BME280;10343;52.402;9.796;2023-02-04T10:36:33;103176.97;;;8.59;56.91
20368;BME280;10343;52.402;9.796;2023-02-04T10:39:08;103168.50;;;9.09;55.44
20368;BME280;10343;52.402;9.796;2023-02-04T10:41:37;103192.78;;;8.91;55.22
20368;BME280;10343;52.402;9.796;2023-02-04T10:44:10;103185.63;;;9.27;55.01
20368;BME280;10343;52.402;9.796;2023-02-04T10:46:40;103192.78;;;8.91;54.72
20368;BME280;10343;52.402;9.796;2023-02-04T10:49:17;103189.84;;;8.79;57.87
20368;BME280;10343;52.402;9.796;2023-02-04T10:51:48;103192.00;;;8.95;55.72
20368;BME280;10343;52.402;9.796;2023-02-04T10:54:17;103191.19;;;7.97;57.54
20368;BME280;10343;52.402;9.796;2023-02-04T10:57:07;103184.88;;;7.91;58.76
20368;BME280;10343;52.402;9.796;2023-02-04T10:59:38;103186.78;;;8.63;57.74
20368;BME280;10343;52.402;9.796;2023-02-04T11:02:30;103187.16;;;9.17;56.74
20368;BME280;10343;52.402;9.796;2023-02-04T11:04:59;103178.78;;;9.37;55.96
20368;BME280;10343;52.402;9.796;2023-02-04T11:07:28;103177.06;;;9.39;56.25
20368;BME280;10343;52.402;9.796;2023-02-04T11:09:56;103185.81;;;9.34;55.40
20368;BME280;10343;52.402;9.796;2023-02-04T11:12:36;103180.34;;;9.28;55.42
20368;BME280;10343;52.402;9.796;2023-02-04T11:15:06;103197.63;;;9.50;54.52
20368;BME280;10343;52.402;9.796;2023-02-04T11:17:36;103188.44;;;9.76;54.25
20368;BME280;10343;52.402;9.796;2023-02-04T11:20:14;103196.72;;;9.50;54.38
20368;BME280;10343;52.402;9.796;2023-02-04T11:22:45;103188.63;;;10.32;53.75
20368;BME280;10343;52.402;9.796;2023-02-04T11:25:31;103185.69;;;10.66;51.89
20368;BME280;10343;52.402;9.796;2023-02-04T11:28:12;103185.19;;;9.89;52.82
20368;BME280;10343;52.402;9.796;2023-02-04T11:30:40;103189.81;;;9.17;53.83
20368;BME280;10343;52.402;9.796;2023-02-04T11:33:23;103186.59;;;9.72;53.99
20368;BME280;10343;52.402;9.796;2023-02-04T11:36:03;103190.72;;;10.01;51.72
20368;BME280;10343;52.402;9.796;2023-02-04T11:38:32;103194.31;;;10.07;51.37
20368;BME280;10343;52.402;9.796;2023-02-04T11:41:00;103189.22;;;10.16;51.12
20368;BME280;10343;52.402;9.796;2023-02-04T11:43:32;103183.13;;;9.76;51.39
20368;BME280;10343;52.402;9.796;2023-02-04T11:46:03;103183.75;;;9.62;51.82
20368;BME280;10343;52.402;9.796;2023-02-04T11:48:35;103195.34;;;9.67;52.19
20368;BME280;10343;52.402;9.796;2023-02-04T11:51:11;103208.09;;;9.44;52.92
20368;BME280;10343;52.402;9.796;2023-02-04T11:53:39;103208.50;;;9.23;54.87
20368;BME280;10343;52.402;9.796;2023-02-04T11:56:20;103206.66;;;9.19;54.71
20368;BME280;10343;52.402;9.796;2023-02-04T11:58:59;103201.34;;;9.59;53.37
20368;BME280;10343;52.402;9.796;2023-02-04T12:02:15;103203.00;;;9.54;54.18
20368;BME280;10343;52.402;9.796;2023-02-04T12:04:55;103206.94;;;9.31;54.10
20368;BME280;10343;52.402;9.796;2023-02-04T12:07:27;103205.47;;;9.46;54.27
20368;BME280;10343;52.402;9.796;2023-02-04T12:09:56;103202.59;;;9.37;54.35
20368;BME280;10343;52.402;9.796;2023-02-04T12:12:27;103192.47;;;9.57;54.05
20368;BME280;10343;52.402;9.796;2023-02-04T12:15:01;103191.03;;;9.73;53.82
20368;BME280;10343;52.402;9.796;2023-02-04T12:17:31;103196.59;;;9.44;53.71
20368;BME280;10343;52.402;9.796;2023-02-04T12:20:00;103193.81;;;9.80;53.73
20368;BME280;10343;52.402;9.796;2023-02-04T12:22:29;103206.00;;;9.71;53.46
20368;BME280;10343;52.402;9.796;2023-02-04T12:24:57;103203.84;;;9.52;52.96
20368;BME280;10343;52.402;9.796;2023-02-04T12:27:25;103203.72;;;9.46;52.96
20368;BME280;10343;52.402;9.796;2023-02-04T12:29:54;103200.53;;;9.63;52.99
20368;BME280;10343;52.402;9.796;2023-02-04T12:32:29;103214.47;;;9.54;53.88
20368;BME280;10343;52.402;9.796;2023-02-04T12:34:58;103213.88;;;9.67;53.53
20368;BME280;10343;52.402;9.796;2023-02-04T12:37:27;103211.97;;;9.60;52.96
20368;BME280;10343;52.402;9.796;2023-02-04T12:39:56;103213.31;;;9.41;53.11
20368;BME280;10343;52.402;9.796;2023-02-04T12:42:25;103208.50;;;9.63;52.60
20368;BME280;10343;52.402;9.796;2023-02-04T12:44:53;103208.06;;;9.85;52.86
20368;BME280;10343;52.402;9.796;2023-02-04T12:47:22;103221.88;;;8.91;53.21
20368;BME280;10343;52.402;9.796;2023-02-04T12:49:51;103218.47;;;9.35;53.10
20368;BME280;10343;52.402;9.796;2023-02-04T12:52:19;103220.50;;;9.09;52.71
20368;BME280;10343;52.402;9.796;2023-02-04T12:54:50;103229.31;;;9.47;52.21
20368;BME280;10343;52.402;9.796;2023-02-04T12:57:19;103229.41;;;9.50;53.29
20368;BME280;10343;52.402;9.796;2023-02-04T13:00:00;103231.31;;;9.18;53.02
20368;BME280;10343;52.402;9.796;2023-02-04T13:02:29;103223.28;;;9.53;52.61
20368;BME280;10343;52.402;9.796;2023-02-04T13:04:57;103233.06;;;9.16;53.28
20368;BME280;10343;52.402;9.796;2023-02-04T13:07:25;103222.03;;;9.77;52.61
20368;BME280;10343;52.402;9.796;2023-02-04T13:09:55;103223.66;;;9.30;51.12
20368;BME280;10343;52.402;9.796;2023-02-04T13:12:24;103224.38;;;9.23;50.74